sensor_id;sensor_type;location;lat;lon;timestamp;P1;P2;P0
84223;PMS5003;74353;51.208;0.304;2024-01-06T00:00:38;12;12;
84223;PMS5003;74353;51.208;0.304;2024-01-06T00:03:06;5;5;
84223;PMS5003;74353;51.208;0.304;2024-01-06T00:05:32;22;19;
84223;PMS5003;74353;51.208;0.304;2024-01-06T00:07:58;12;12;
84223;PMS5003;74353;51.208;0.304;2024-01-06T00:10:23;19;19;
84223;PMS5003;74353;51.208;0.304;2024-01-06T00:12:48;15;13;
84223;PMS5003;74353;51.208;0.304;2024-01-06T00:15:16;14;14;
84223;PMS5003;74353;51.208;0.304;2024-01-06T00:17:41;20;17;
84223;PMS5003;74353;51.208;0.304;2024-01-06T00:20:08;10;10;
84223;PMS5003;74353;51.208;0.304;2024-01-06T00:22:35;11;8;
84223;PMS5003;74353;51.208;0.304;2024-01-06T00:25:00;18;18;
84223;PMS5003;74353;51.208;0.304;2024-01-06T00:27:28;16;16;
84223;PMS5003;74353;51.208;0.304;2024-01-06T00:29:54;5;5;
84223;PMS5003;74353;51.208;0.304;2024-01-06T00:32:21;4;4;
84223;PMS5003;74353;51.208;0.304;2024-01-06T00:34:48;16;10;
84223;PMS5003;74353;51.208;0.304;2024-01-06T00:37:15;27;19;
84223;PMS5003;74353;51.208;0.304;2024-01-06T00:39:41;12;12;
84223;PMS5003;74353;51.208;0.304;2024-01-06T00:42:07;10;10;
84223;PMS5003;74353;51.208;0.304;2024-01-06T00:44:35;14;14;
84223;PMS5003;74353;51.208;0.304;2024-01-06T00:47:03;8;8;
84223;PMS5003;74353;51.208;0.304;2024-01-06T00:49:27;11;11;
84223;PMS5003;74353;51.208;0.304;2024-01-06T00:51:53;13;13;
84223;PMS5003;74353;51.208;0.304;2024-01-06T00:54:19;13;13;
84223;PMS5003;74353;51.208;0.304;2024-01-06T00:56:45;12;12;
84223;PMS5003;74353;51.208;0.304;2024-01-06T00:59:12;9;9;
84223;PMS5003;74353;51.208;0.304;2024-01-06T01:01:43;5;5;
84223;PMS5003;74353;51.208;0.304;2024-01-06T01:04:08;11;11;
84223;PMS5003;74353;51.208;0.304;2024-01-06T01:06:35;16;14;
84223;PMS5003;74353;51.208;0.304;2024-01-06T01:08:59;13;13;
84223;PMS5003;74353;51.208;0.304;2024-01-06T01:11:29;27;15;
84223;PMS5003;74353;51.208;0.304;2024-01-06T01:13:56;9;9;
84223;PMS5003;74353;51.208;0.304;2024-01-06T01:16:22;23;20;
84223;PMS5003;74353;51.208;0.304;2024-01-06T01:18:48;12;12;
84223;PMS5003;74353;51.208;0.304;2024-01-06T01:21:14;22;19;
84223;PMS5003;74353;51.208;0.304;2024-01-06T01:23:41;10;6;
84223;PMS5003;74353;51.208;0.304;2024-01-06T01:26:06;9;9;
84223;PMS5003;74353;51.208;0.304;2024-01-06T01:28:31;12;12;
84223;PMS5003;74353;51.208;0.304;2024-01-06T01:30:57;15;13;
84223;PMS5003;74353;51.208;0.304;2024-01-06T01:33:24;14;14;
84223;PMS5003;74353;51.208;0.304;2024-01-06T01:35:50;6;6;
84223;PMS5003;74353;51.208;0.304;2024-01-06T01:38:18;13;13;
84223;PMS5003;74353;51.208;0.304;2024-01-06T01:40:43;12;12;
84223;PMS5003;74353;51.208;0.304;2024-01-06T01:45:36;9;9;
84223;PMS5003;74353;51.208;0.304;2024-01-06T01:48:02;18;18;
84223;PMS5003;74353;51.208;0.304;2024-01-06T01:50:28;8;8;
84223;PMS5003;74353;51.208;0.304;2024-01-06T01:52:54;13;13;
84223;PMS5003;74353;51.208;0.304;2024-01-06T01:55:23;9;9;
84223;PMS5003;74353;51.208;0.304;2024-01-06T01:57:48;9;9;
84223;PMS5003;74353;51.208;0.304;2024-01-06T02:00:14;13;13;
84223;PMS5003;74353;51.208;0.304;2024-01-06T02:02:40;5;5;
84223;PMS5003;74353;51.208;0.304;2024-01-06T02:05:09;8;8;
84223;PMS5003;74353;51.208;0.304;2024-01-06T02:07:35;9;9;
84223;PMS5003;74353;51.208;0.304;2024-01-06T02:10:02;7;7;
84223;PMS5003;74353;51.208;0.304;2024-01-06T02:12:30;8;8;
84223;PMS5003;74353;51.208;0.304;2024-01-06T02:14:55;12;12;
84223;PMS5003;74353;51.208;0.304;2024-01-06T02:19:51;6;6;
84223;PMS5003;74353;51.208;0.304;2024-01-06T02:22:17;7;7;
84223;PMS5003;74353;51.208;0.304;2024-01-06T02:24:43;11;11;
84223;PMS5003;74353;51.208;0.304;2024-01-06T02:27:09;13;13;
84223;PMS5003;74353;51.208;0.304;2024-01-06T02:29:36;8;8;
84223;PMS5003;74353;51.208;0.304;2024-01-06T02:32:03;12;12;
84223;PMS5003;74353;51.208;0.304;2024-01-06T02:34:28;22;22;
84223;PMS5003;74353;51.208;0.304;2024-01-06T02:36:54;16;16;
84223;PMS5003;74353;51.208;0.304;2024-01-06T02:39:20;11;11;
84223;PMS5003;74353;51.208;0.304;2024-01-06T02:41:46;8;8;
84223;PMS5003;74353;51.208;0.304;2024-01-06T02:44:11;8;8;
84223;PMS5003;74353;51.208;0.304;2024-01-06T02:46:36;12;10;
84223;PMS5003;74353;51.208;0.304;2024-01-06T02:49:03;9;9;
84223;PMS5003;74353;51.208;0.304;2024-01-06T02:51:31;6;6;
84223;PMS5003;74353;51.208;0.304;2024-01-06T02:53:57;4;4;
84223;PMS5003;74353;51.208;0.304;2024-01-06T02:56:23;6;6;
84223;PMS5003;74353;51.208;0.304;2024-01-06T02:58:49;8;8;
84223;PMS5003;74353;51.208;0.304;2024-01-06T03:01:15;9;8;
84223;PMS5003;74353;51.208;0.304;2024-01-06T03:03:41;12;12;
84223;PMS5003;74353;51.208;0.304;2024-01-06T03:06:06;5;5;
84223;PMS5003;74353;51.208;0.304;2024-01-06T03:08:32;4;4;
84223;PMS5003;74353;51.208;0.304;2024-01-06T03:10:57;4;4;
84223;PMS5003;74353;51.208;0.304;2024-01-06T03:13:23;6;6;
84223;PMS5003;74353;51.208;0.304;2024-01-06T03:15:50;5;5;
84223;PMS5003;74353;51.208;0.304;2024-01-06T03:18:18;2;2;
84223;PMS5003;74353;51.208;0.304;2024-01-06T03:20:45;8;8;
84223;PMS5003;74353;51.208;0.304;2024-01-06T03:23:12;9;9;
84223;PMS5003;74353;51.208;0.304;2024-01-06T03:25:37;4;4;
84223;PMS5003;74353;51.208;0.304;2024-01-06T03:28:02;6;6;
84223;PMS5003;74353;51.208;0.304;2024-01-06T03:30:32;3;3;
84223;PMS5003;74353;51.208;0.304;2024-01-06T03:32:57;1;1;
84223;PMS5003;74353;51.208;0.304;2024-01-06T03:35:23;1;1;
84223;PMS5003;74353;51.208;0.304;2024-01-06T03:37:49;2;2;
84223;PMS5003;74353;51.208;0.304;2024-01-06T03:40:15;2;2;
84223;PMS5003;74353;51.208;0.304;2024-01-06T03:42:40;3;3;
84223;PMS5003;74353;51.208;0.304;2024-01-06T03:45:05;4;4;
84223;PMS5003;74353;51.208;0.304;2024-01-06T03:47:30;4;4;
84223;PMS5003;74353;51.208;0.304;2024-01-06T03:49:56;5;5;
84223;PMS5003;74353;51.208;0.304;2024-01-06T03:52:23;8;8;
84223;PMS5003;74353;51.208;0.304;2024-01-06T03:54:49;2;2;
84223;PMS5003;74353;51.208;0.304;2024-01-06T03:57:16;2;2;
84223;PMS5003;74353;51.208;0.304;2024-01-06T03:59:42;4;4;
84223;PMS5003;74353;51.208;0.304;2024-01-06T04:02:12;1;1;
84223;PMS5003;74353;51.208;0.304;2024-01-06T04:04:38;5;5;
84223;PMS5003;74353;51.208;0.304;2024-01-06T04:07:03;2;2;
84223;PMS5003;74353;51.208;0.304;2024-01-06T04:09:28;4;4;
84223;PMS5003;74353;51.208;0.304;2024-01-06T04:11:55;5;5;
84223;PMS5003;74353;51.208;0.304;2024-01-06T04:14:21;1;1;
84223;PMS5003;74353;51.208;0.304;2024-01-06T04:16:47;4;4;
84223;PMS5003;74353;51.208;0.304;2024-01-06T04:19:13;5;5;
84223;PMS5003;74353;51.208;0.304;2024-01-06T04:21:41;3;3;
84223;PMS5003;74353;51.208;0.304;2024-01-06T04:24:06;2;1;
84223;PMS5003;74353;51.208;0.304;2024-01-06T04:26:35;3;3;
84223;PMS5003;74353;51.208;0.304;2024-01-06T04:29:12;4;4;
84223;PMS5003;74353;51.208;0.304;2024-01-06T04:31:27;2;2;
84223;PMS5003;74353;51.208;0.304;2024-01-06T04:33:52;4;4;
84223;PMS5003;74353;51.208;0.304;2024-01-06T04:36:18;4;4;
84223;PMS5003;74353;51.208;0.304;2024-01-06T04:38:43;4;4;
84223;PMS5003;74353;51.208;0.304;2024-01-06T04:41:09;2;2;
84223;PMS5003;74353;51.208;0.304;2024-01-06T04:43:34;3;3;
84223;PMS5003;74353;51.208;0.304;2024-01-06T04:46:02;5;5;
84223;PMS5003;74353;51.208;0.304;2024-01-06T04:48:30;0;0;
84223;PMS5003;74353;51.208;0.304;2024-01-06T04:50:56;12;8;
84223;PMS5003;74353;51.208;0.304;2024-01-06T04:53:21;2;2;
84223;PMS5003;74353;51.208;0.304;2024-01-06T04:55:47;5;5;
84223;PMS5003;74353;51.208;0.304;2024-01-06T04:58:13;5;5;
84223;PMS5003;74353;51.208;0.304;2024-01-06T05:00:41;8;8;
84223;PMS5003;74353;51.208;0.304;2024-01-06T05:03:08;7;7;
84223;PMS5003;74353;51.208;0.304;2024-01-06T05:05:35;2;2;
84223;PMS5003;74353;51.208;0.304;2024-01-06T05:08:03;4;4;
84223;PMS5003;74353;51.208;0.304;2024-01-06T05:10:30;5;5;
84223;PMS5003;74353;51.208;0.304;2024-01-06T05:12:55;2;2;
84223;PMS5003;74353;51.208;0.304;2024-01-06T05:15:21;4;4;
84223;PMS5003;74353;51.208;0.304;2024-01-06T05:17:48;3;3;
84223;PMS5003;74353;51.208;0.304;2024-01-06T05:20:14;4;4;
84223;PMS5003;74353;51.208;0.304;2024-01-06T05:22:42;4;4;
84223;PMS5003;74353;51.208;0.304;2024-01-06T05:25:09;6;6;
84223;PMS5003;74353;51.208;0.304;2024-01-06T05:27:35;6;6;
84223;PMS5003;74353;51.208;0.304;2024-01-06T05:30:03;2;2;
84223;PMS5003;74353;51.208;0.304;2024-01-06T05:32:28;4;3;
84223;PMS5003;74353;51.208;0.304;2024-01-06T05:34:54;5;5;
84223;PMS5003;74353;51.208;0.304;2024-01-06T05:37:22;5;5;
84223;PMS5003;74353;51.208;0.304;2024-01-06T05:39:48;4;4;
84223;PMS5003;74353;51.208;0.304;2024-01-06T05:42:14;5;5;
84223;PMS5003;74353;51.208;0.304;2024-01-06T05:44:41;4;4;
84223;PMS5003;74353;51.208;0.304;2024-01-06T05:47:09;3;3;
84223;PMS5003;74353;51.208;0.304;2024-01-06T05:49:34;4;4;
84223;PMS5003;74353;51.208;0.304;2024-01-06T05:52:00;5;5;
84223;PMS5003;74353;51.208;0.304;2024-01-06T05:54:26;5;5;
84223;PMS5003;74353;51.208;0.304;2024-01-06T05:56:51;5;5;
84223;PMS5003;74353;51.208;0.304;2024-01-06T05:59:16;0;0;
84223;PMS5003;74353;51.208;0.304;2024-01-06T06:01:43;8;8;
84223;PMS5003;74353;51.208;0.304;2024-01-06T06:04:11;0;0;
84223;PMS5003;74353;51.208;0.304;2024-01-06T06:06:37;0;0;
84223;PMS5003;74353;51.208;0.304;2024-01-06T06:09:03;3;3;
84223;PMS5003;74353;51.208;0.304;2024-01-06T06:11:35;3;3;
84223;PMS5003;74353;51.208;0.304;2024-01-06T06:14:02;0;0;
84223;PMS5003;74353;51.208;0.304;2024-01-06T06:16:30;4;4;
84223;PMS5003;74353;51.208;0.304;2024-01-06T06:18:55;4;4;
84223;PMS5003;74353;51.208;0.304;2024-01-06T06:21:20;6;6;
84223;PMS5003;74353;51.208;0.304;2024-01-06T06:23:47;7;7;
84223;PMS5003;74353;51.208;0.304;2024-01-06T06:26:13;7;5;
84223;PMS5003;74353;51.208;0.304;2024-01-06T06:28:39;8;8;
84223;PMS5003;74353;51.208;0.304;2024-01-06T06:31:05;2;2;
84223;PMS5003;74353;51.208;0.304;2024-01-06T06:33:30;4;4;
84223;PMS5003;74353;51.208;0.304;2024-01-06T06:35:56;3;3;
84223;PMS5003;74353;51.208;0.304;2024-01-06T06:38:22;5;5;
84223;PMS5003;74353;51.208;0.304;2024-01-06T06:40:49;2;2;
84223;PMS5003;74353;51.208;0.304;2024-01-06T06:43:16;5;5;
84223;PMS5003;74353;51.208;0.304;2024-01-06T06:45:42;5;4;
84223;PMS5003;74353;51.208;0.304;2024-01-06T06:48:08;9;9;
84223;PMS5003;74353;51.208;0.304;2024-01-06T06:50:33;5;5;
84223;PMS5003;74353;51.208;0.304;2024-01-06T06:52:59;5;5;
84223;PMS5003;74353;51.208;0.304;2024-01-06T06:55:25;1;1;
84223;PMS5003;74353;51.208;0.304;2024-01-06T06:57:52;3;3;
84223;PMS5003;74353;51.208;0.304;2024-01-06T07:00:19;1;1;
84223;PMS5003;74353;51.208;0.304;2024-01-06T07:02:45;3;3;
84223;PMS5003;74353;51.208;0.304;2024-01-06T07:05:11;1;1;
84223;PMS5003;74353;51.208;0.304;2024-01-06T07:07:37;4;4;
84223;PMS5003;74353;51.208;0.304;2024-01-06T07:10:04;2;2;
84223;PMS5003;74353;51.208;0.304;2024-01-06T07:12:29;0;0;
84223;PMS5003;74353;51.208;0.304;2024-01-06T07:14:54;5;4;
84223;PMS5003;74353;51.208;0.304;2024-01-06T07:17:22;3;3;
84223;PMS5003;74353;51.208;0.304;2024-01-06T07:19:48;1;1;
84223;PMS5003;74353;51.208;0.304;2024-01-06T07:22:14;2;2;
84223;PMS5003;74353;51.208;0.304;2024-01-06T07:24:41;3;3;
84223;PMS5003;74353;51.208;0.304;2024-01-06T07:27:06;2;2;
84223;PMS5003;74353;51.208;0.304;2024-01-06T07:29:33;2;2;
84223;PMS5003;74353;51.208;0.304;2024-01-06T07:31:59;3;3;
84223;PMS5003;74353;51.208;0.304;2024-01-06T07:34:25;2;2;
84223;PMS5003;74353;51.208;0.304;2024-01-06T07:36:53;1;1;
84223;PMS5003;74353;51.208;0.304;2024-01-06T07:39:19;6;4;
84223;PMS5003;74353;51.208;0.304;2024-01-06T07:41:44;0;0;
84223;PMS5003;74353;51.208;0.304;2024-01-06T07:44:10;2;2;
84223;PMS5003;74353;51.208;0.304;2024-01-06T07:46:35;1;1;
84223;PMS5003;74353;51.208;0.304;2024-01-06T07:49:00;3;3;
84223;PMS5003;74353;51.208;0.304;2024-01-06T07:51:27;2;2;
84223;PMS5003;74353;51.208;0.304;2024-01-06T07:53:53;4;4;
84223;PMS5003;74353;51.208;0.304;2024-01-06T07:56:21;2;2;
84223;PMS5003;74353;51.208;0.304;2024-01-06T07:58:49;10;2;
84223;PMS5003;74353;51.208;0.304;2024-01-06T08:01:15;3;3;
84223;PMS5003;74353;51.208;0.304;2024-01-06T08:03:41;5;4;
84223;PMS5003;74353;51.208;0.304;2024-01-06T08:06:08;2;2;
84223;PMS5003;74353;51.208;0.304;2024-01-06T08:08:37;2;2;
84223;PMS5003;74353;51.208;0.304;2024-01-06T08:11:02;3;3;
84223;PMS5003;74353;51.208;0.304;2024-01-06T08:13:29;2;2;
84223;PMS5003;74353;51.208;0.304;2024-01-06T08:15:54;3;3;
84223;PMS5003;74353;51.208;0.304;2024-01-06T08:18:21;7;2;
84223;PMS5003;74353;51.208;0.304;2024-01-06T08:20:49;1;1;
84223;PMS5003;74353;51.208;0.304;2024-01-06T08:23:16;5;5;
84223;PMS5003;74353;51.208;0.304;2024-01-06T08:25:42;3;3;
84223;PMS5003;74353;51.208;0.304;2024-01-06T08:28:07;2;2;
84223;PMS5003;74353;51.208;0.304;2024-01-06T08:30:35;3;3;
84223;PMS5003;74353;51.208;0.304;2024-01-06T08:33:04;2;2;
84223;PMS5003;74353;51.208;0.304;2024-01-06T08:35:29;4;4;
84223;PMS5003;74353;51.208;0.304;2024-01-06T08:37:57;1;1;
84223;PMS5003;74353;51.208;0.304;2024-01-06T08:40:23;3;3;
84223;PMS5003;74353;51.208;0.304;2024-01-06T08:42:51;1;1;
84223;PMS5003;74353;51.208;0.304;2024-01-06T08:45:19;0;0;
84223;PMS5003;74353;51.208;0.304;2024-01-06T08:47:44;1;1;
84223;PMS5003;74353;51.208;0.304;2024-01-06T08:50:12;0;0;
84223;PMS5003;74353;51.208;0.304;2024-01-06T08:52:38;4;4;
84223;PMS5003;74353;51.208;0.304;2024-01-06T08:55:05;6;6;
84223;PMS5003;74353;51.208;0.304;2024-01-06T08:57:30;3;3;
84223;PMS5003;74353;51.208;0.304;2024-01-06T08:59:55;1;1;
84223;PMS5003;74353;51.208;0.304;2024-01-06T09:02:21;2;2;
84223;PMS5003;74353;51.208;0.304;2024-01-06T09:04:46;3;3;
84223;PMS5003;74353;51.208;0.304;2024-01-06T09:07:12;2;2;
84223;PMS5003;74353;51.208;0.304;2024-01-06T09:09:37;4;4;
84223;PMS5003;74353;51.208;0.304;2024-01-06T09:12:02;1;1;
84223;PMS5003;74353;51.208;0.304;2024-01-06T09:14:28;4;1;
84223;PMS5003;74353;51.208;0.304;2024-01-06T09:16:56;0;0;
84223;PMS5003;74353;51.208;0.304;2024-01-06T09:19:22;0;0;
84223;PMS5003;74353;51.208;0.304;2024-01-06T09:21:49;1;1;
84223;PMS5003;74353;51.208;0.304;2024-01-06T09:24:15;2;2;
84223;PMS5003;74353;51.208;0.304;2024-01-06T09:26:42;0;0;
84223;PMS5003;74353;51.208;0.304;2024-01-06T09:29:08;3;3;
84223;PMS5003;74353;51.208;0.304;2024-01-06T09:31:33;0;0;
84223;PMS5003;74353;51.208;0.304;2024-01-06T09:34:00;1;1;
84223;PMS5003;74353;51.208;0.304;2024-01-06T09:36:26;3;3;
84223;PMS5003;74353;51.208;0.304;2024-01-06T09:38:53;1;1;
84223;PMS5003;74353;51.208;0.304;2024-01-06T09:41:21;3;3;
84223;PMS5003;74353;51.208;0.304;2024-01-06T09:43:49;0;0;
84223;PMS5003;74353;51.208;0.304;2024-01-06T09:46:20;0;0;
84223;PMS5003;74353;51.208;0.304;2024-01-06T09:48:42;1;1;
84223;PMS5003;74353;51.208;0.304;2024-01-06T09:51:09;0;0;
84223;PMS5003;74353;51.208;0.304;2024-01-06T09:53:38;0;0;
84223;PMS5003;74353;51.208;0.304;2024-01-06T09:56:05;2;2;
84223;PMS5003;74353;51.208;0.304;2024-01-06T09:58:30;0;0;
84223;PMS5003;74353;51.208;0.304;2024-01-06T10:00:58;2;2;
84223;PMS5003;74353;51.208;0.304;2024-01-06T10:03:23;2;2;
84223;PMS5003;74353;51.208;0.304;2024-01-06T10:05:51;3;3;
84223;PMS5003;74353;51.208;0.304;2024-01-06T10:08:18;0;0;
84223;PMS5003;74353;51.208;0.304;2024-01-06T10:10:44;6;4;
84223;PMS5003;74353;51.208;0.304;2024-01-06T10:13:08;4;4;
84223;PMS5003;74353;51.208;0.304;2024-01-06T10:15:34;2;2;
84223;PMS5003;74353;51.208;0.304;2024-01-06T10:18:00;3;3;
84223;PMS5003;74353;51.208;0.304;2024-01-06T10:20:26;0;0;
84223;PMS5003;74353;51.208;0.304;2024-01-06T10:22:53;0;0;
84223;PMS5003;74353;51.208;0.304;2024-01-06T10:25:22;1;1;
84223;PMS5003;74353;51.208;0.304;2024-01-06T10:27:47;0;0;
84223;PMS5003;74353;51.208;0.304;2024-01-06T10:30:15;7;7;
84223;PMS5003;74353;51.208;0.304;2024-01-06T10:32:42;1;1;
84223;PMS5003;74353;51.208;0.304;2024-01-06T10:35:07;0;0;
84223;PMS5003;74353;51.208;0.304;2024-01-06T10:37:33;2;2;
84223;PMS5003;74353;51.208;0.304;2024-01-06T10:40:06;2;1;
84223;PMS5003;74353;51.208;0.304;2024-01-06T10:42:25;0;0;
84223;PMS5003;74353;51.208;0.304;2024-01-06T10:44:51;0;0;
84223;PMS5003;74353;51.208;0.304;2024-01-06T10:47:17;1;1;
84223;PMS5003;74353;51.208;0.304;2024-01-06T10:49:43;2;2;
84223;PMS5003;74353;51.208;0.304;2024-01-06T10:52:08;0;0;
84223;PMS5003;74353;51.208;0.304;2024-01-06T10:54:35;0;0;
84223;PMS5003;74353;51.208;0.304;2024-01-06T10:57:05;1;1;
84223;PMS5003;74353;51.208;0.304;2024-01-06T10:59:31;0;0;
84223;PMS5003;74353;51.208;0.304;2024-01-06T11:02:00;0;0;
84223;PMS5003;74353;51.208;0.304;2024-01-06T11:04:27;0;0;
84223;PMS5003;74353;51.208;0.304;2024-01-06T11:06:53;0;0;
84223;PMS5003;74353;51.208;0.304;2024-01-06T11:09:19;0;0;
84223;PMS5003;74353;51.208;0.304;2024-01-06T11:11:44;1;1;
84223;PMS5003;74353;51.208;0.304;2024-01-06T11:14:18;0;0;
84223;PMS5003;74353;51.208;0.304;2024-01-06T11:16:36;0;0;
84223;PMS5003;74353;51.208;0.304;2024-01-06T11:19:02;0;0;
84223;PMS5003;74353;51.208;0.304;2024-01-06T11:21:29;1;1;
84223;PMS5003;74353;51.208;0.304;2024-01-06T11:26:21;5;5;
84223;PMS5003;74353;51.208;0.304;2024-01-06T11:28:47;2;2;
84223;PMS5003;74353;51.208;0.304;2024-01-06T11:31:12;4;1;
84223;PMS5003;74353;51.208;0.304;2024-01-06T11:33:43;1;1;
84223;PMS5003;74353;51.208;0.304;2024-01-06T11:36:09;1;1;
84223;PMS5003;74353;51.208;0.304;2024-01-06T11:38:37;0;0;
84223;PMS5003;74353;51.208;0.304;2024-01-06T11:41:02;1;1;
84223;PMS5003;74353;51.208;0.304;2024-01-06T11:43:27;3;3;
84223;PMS5003;74353;51.208;0.304;2024-01-06T11:45:55;1;1;
84223;PMS5003;74353;51.208;0.304;2024-01-06T11:48:20;0;0;
84223;PMS5003;74353;51.208;0.304;2024-01-06T11:50:48;0;0;
84223;PMS5003;74353;51.208;0.304;2024-01-06T11:53:15;0;0;
84223;PMS5003;74353;51.208;0.304;2024-01-06T11:55:40;1;1;
84223;PMS5003;74353;51.208;0.304;2024-01-06T11:58:06;3;3;
84223;PMS5003;74353;51.208;0.304;2024-01-06T12:00:36;0;0;
84223;PMS5003;74353;51.208;0.304;2024-01-06T12:02:58;1;1;
84223;PMS5003;74353;51.208;0.304;2024-01-06T12:05:23;0;0;
84223;PMS5003;74353;51.208;0.304;2024-01-06T12:07:53;1;1;
84223;PMS5003;74353;51.208;0.304;2024-01-06T12:10:15;0;0;
84223;PMS5003;74353;51.208;0.304;2024-01-06T12:12:40;0;0;
84223;PMS5003;74353;51.208;0.304;2024-01-06T12:15:07;0;0;
84223;PMS5003;74353;51.208;0.304;2024-01-06T12:17:34;5;0;
84223;PMS5003;74353;51.208;0.304;2024-01-06T12:20:00;2;2;
84223;PMS5003;74353;51.208;0.304;2024-01-06T12:22:28;0;0;
84223;PMS5003;74353;51.208;0.304;2024-01-06T12:24:53;0;0;
84223;PMS5003;74353;51.208;0.304;2024-01-06T12:27:19;1;1;
84223;PMS5003;74353;51.208;0.304;2024-01-06T12:29:46;0;0;
84223;PMS5003;74353;51.208;0.304;2024-01-06T12:32:12;0;0;
84223;PMS5003;74353;51.208;0.304;2024-01-06T12:34:42;0;0;
84223;PMS5003;74353;51.208;0.304;2024-01-06T12:37:07;0;0;
84223;PMS5003;74353;51.208;0.304;2024-01-06T12:39:33;2;2;
84223;PMS5003;74353;51.208;0.304;2024-01-06T12:42:01;1;1;
84223;PMS5003;74353;51.208;0.304;2024-01-06T12:44:26;3;3;
84223;PMS5003;74353;51.208;0.304;2024-01-06T12:46:52;7;5;
84223;PMS5003;74353;51.208;0.304;2024-01-06T12:49:18;3;3;
84223;PMS5003;74353;51.208;0.304;2024-01-06T12:51:43;3;3;
84223;PMS5003;74353;51.208;0.304;2024-01-06T12:54:08;1;1;
84223;PMS5003;74353;51.208;0.304;2024-01-06T12:56:34;1;1;
84223;PMS5003;74353;51.208;0.304;2024-01-06T12:58:59;1;1;
84223;PMS5003;74353;51.208;0.304;2024-01-06T13:01:25;2;2;
84223;PMS5003;74353;51.208;0.304;2024-01-06T13:03:50;2;2;
84223;PMS5003;74353;51.208;0.304;2024-01-06T13:06:16;1;1;
84223;PMS5003;74353;51.208;0.304;2024-01-06T13:08:42;2;1;
84223;PMS5003;74353;51.208;0.304;2024-01-06T13:11:07;3;3;
84223;PMS5003;74353;51.208;0.304;2024-01-06T13:13:35;10;3;
84223;PMS5003;74353;51.208;0.304;2024-01-06T13:16:03;1;1;
84223;PMS5003;74353;51.208;0.304;2024-01-06T13:18:30;0;0;
84223;PMS5003;74353;51.208;0.304;2024-01-06T13:20:58;1;1;
84223;PMS5003;74353;51.208;0.304;2024-01-06T13:23:24;3;3;
84223;PMS5003;74353;51.208;0.304;2024-01-06T13:25:51;2;2;
84223;PMS5003;74353;51.208;0.304;2024-01-06T13:28:17;0;0;
84223;PMS5003;74353;51.208;0.304;2024-01-06T13:30:42;2;2;
84223;PMS5003;74353;51.208;0.304;2024-01-06T13:33:08;2;2;
84223;PMS5003;74353;51.208;0.304;2024-01-06T13:35:34;0;0;
84223;PMS5003;74353;51.208;0.304;2024-01-06T13:38:02;1;1;
84223;PMS5003;74353;51.208;0.304;2024-01-06T13:40:28;0;0;
84223;PMS5003;74353;51.208;0.304;2024-01-06T13:42:55;2;2;
84223;PMS5003;74353;51.208;0.304;2024-01-06T13:45:21;0;0;
84223;PMS5003;74353;51.208;0.304;2024-01-06T13:47:46;2;2;
84223;PMS5003;74353;51.208;0.304;2024-01-06T13:50:18;2;2;
84223;PMS5003;74353;51.208;0.304;2024-01-06T13:52:44;0;0;
84223;PMS5003;74353;51.208;0.304;2024-01-06T13:55:12;0;0;
84223;PMS5003;74353;51.208;0.304;2024-01-06T13:57:39;0;0;
84223;PMS5003;74353;51.208;0.304;2024-01-06T14:00:06;0;0;
84223;PMS5003;74353;51.208;0.304;2024-01-06T14:02:32;0;0;
84223;PMS5003;74353;51.208;0.304;2024-01-06T14:04:59;1;1;
84223;PMS5003;74353;51.208;0.304;2024-01-06T14:07:25;2;2;
84223;PMS5003;74353;51.208;0.304;2024-01-06T14:09:50;4;4;
84223;PMS5003;74353;51.208;0.304;2024-01-06T14:12:18;6;1;
84223;PMS5003;74353;51.208;0.304;2024-01-06T14:14:45;5;5;
84223;PMS5003;74353;51.208;0.304;2024-01-06T14:17:13;6;6;
84223;PMS5003;74353;51.208;0.304;2024-01-06T14:19:38;3;3;
84223;PMS5003;74353;51.208;0.304;2024-01-06T14:22:05;3;3;
84223;PMS5003;74353;51.208;0.304;2024-01-06T14:24:31;5;5;
84223;PMS5003;74353;51.208;0.304;2024-01-06T14:26:59;5;2;
84223;PMS5003;74353;51.208;0.304;2024-01-06T14:29:26;7;7;
84223;PMS5003;74353;51.208;0.304;2024-01-06T14:31:52;2;2;
84223;PMS5003;74353;51.208;0.304;2024-01-06T14:34:20;4;4;
84223;PMS5003;74353;51.208;0.304;2024-01-06T14:36:48;1;1;
84223;PMS5003;74353;51.208;0.304;2024-01-06T14:39:14;4;4;
84223;PMS5003;74353;51.208;0.304;2024-01-06T14:41:42;3;3;
84223;PMS5003;74353;51.208;0.304;2024-01-06T14:44:09;1;1;
84223;PMS5003;74353;51.208;0.304;2024-01-06T14:46:34;5;5;
84223;PMS5003;74353;51.208;0.304;2024-01-06T14:48:59;5;5;
84223;PMS5003;74353;51.208;0.304;2024-01-06T14:51:25;4;3;
84223;PMS5003;74353;51.208;0.304;2024-01-06T14:53:53;2;2;
84223;PMS5003;74353;51.208;0.304;2024-01-06T14:56:18;5;3;
84223;PMS5003;74353;51.208;0.304;2024-01-06T14:58:45;3;3;
84223;PMS5003;74353;51.208;0.304;2024-01-06T15:01:12;6;6;
84223;PMS5003;74353;51.208;0.304;2024-01-06T15:03:38;0;0;
84223;PMS5003;74353;51.208;0.304;2024-01-06T15:06:03;5;5;
84223;PMS5003;74353;51.208;0.304;2024-01-06T15:08:29;4;4;
84223;PMS5003;74353;51.208;0.304;2024-01-06T15:10:56;0;0;
84223;PMS5003;74353;51.208;0.304;2024-01-06T15:13:24;3;3;
84223;PMS5003;74353;51.208;0.304;2024-01-06T15:15:50;3;3;
84223;PMS5003;74353;51.208;0.304;2024-01-06T15:18:17;3;3;
84223;PMS5003;74353;51.208;0.304;2024-01-06T15:20:43;2;2;
84223;PMS5003;74353;51.208;0.304;2024-01-06T15:23:08;3;3;
84223;PMS5003;74353;51.208;0.304;2024-01-06T15:25:36;1;1;
84223;PMS5003;74353;51.208;0.304;2024-01-06T15:28:02;6;6;
84223;PMS5003;74353;51.208;0.304;2024-01-06T15:30:29;11;11;
84223;PMS5003;74353;51.208;0.304;2024-01-06T15:32:55;3;3;
84223;PMS5003;74353;51.208;0.304;2024-01-06T15:35:21;1;1;
84223;PMS5003;74353;51.208;0.304;2024-01-06T15:37:49;3;3;
84223;PMS5003;74353;51.208;0.304;2024-01-06T15:40:16;3;3;
84223;PMS5003;74353;51.208;0.304;2024-01-06T15:42:43;2;2;
84223;PMS5003;74353;51.208;0.304;2024-01-06T15:45:13;5;2;
84223;PMS5003;74353;51.208;0.304;2024-01-06T15:47:39;3;3;
84223;PMS5003;74353;51.208;0.304;2024-01-06T15:50:06;1;1;
84223;PMS5003;74353;51.208;0.304;2024-01-06T15:52:31;2;2;
84223;PMS5003;74353;51.208;0.304;2024-01-06T15:54:58;4;4;
84223;PMS5003;74353;51.208;0.304;2024-01-06T15:57:23;2;2;
84223;PMS5003;74353;51.208;0.304;2024-01-06T15:59:51;2;2;
84223;PMS5003;74353;51.208;0.304;2024-01-06T16:02:17;2;2;
84223;PMS5003;74353;51.208;0.304;2024-01-06T16:04:44;2;2;
84223;PMS5003;74353;51.208;0.304;2024-01-06T16:07:10;0;0;
84223;PMS5003;74353;51.208;0.304;2024-01-06T16:09:38;6;6;
84223;PMS5003;74353;51.208;0.304;2024-01-06T16:12:03;1;1;
84223;PMS5003;74353;51.208;0.304;2024-01-06T16:14:29;5;5;
84223;PMS5003;74353;51.208;0.304;2024-01-06T16:16:56;3;3;
84223;PMS5003;74353;51.208;0.304;2024-01-06T16:19:23;4;4;
84223;PMS5003;74353;51.208;0.304;2024-01-06T16:21:51;5;3;
84223;PMS5003;74353;51.208;0.304;2024-01-06T16:24:16;3;3;
84223;PMS5003;74353;51.208;0.304;2024-01-06T16:26:42;1;1;
84223;PMS5003;74353;51.208;0.304;2024-01-06T16:29:08;12;12;
84223;PMS5003;74353;51.208;0.304;2024-01-06T16:31:35;42;42;
84223;PMS5003;74353;51.208;0.304;2024-01-06T16:34:02;18;18;
84223;PMS5003;74353;51.208;0.304;2024-01-06T16:36:27;18;18;
84223;PMS5003;74353;51.208;0.304;2024-01-06T16:38:55;13;13;
84223;PMS5003;74353;51.208;0.304;2024-01-06T16:41:20;16;14;
84223;PMS5003;74353;51.208;0.304;2024-01-06T16:43:47;12;12;
84223;PMS5003;74353;51.208;0.304;2024-01-06T16:46:12;11;11;